sensor_id;sensor_type;location;lat;lon;timestamp;P1;durP1;ratioP1;P2;durP2;ratioP2
11777;SDS011;5946;51.770;8.548;2023-02-01T00:01:20;23.20;;;5.33;;
11777;SDS011;5946;51.770;8.548;2023-02-01T00:03:46;22.63;;;5.57;;
11777;SDS011;5946;51.770;8.548;2023-02-01T00:06:12;24.27;;;4.97;;
11777;SDS011;5946;51.770;8.548;2023-02-01T00:08:37;20.93;;;5.07;;
11777;SDS011;5946;51.770;8.548;2023-02-01T00:11:04;23.50;;;4.77;;
11777;SDS011;5946;51.770;8.548;2023-02-01T00:13:31;24.97;;;5.10;;
11777;SDS011;5946;51.770;8.548;2023-02-01T00:18:29;17.33;;;4.17;;
11777;SDS011;5946;51.770;8.548;2023-02-01T00:20:55;18.33;;;4.70;;
11777;SDS011;5946;51.770;8.548;2023-02-01T00:23:21;21.17;;;4.93;;
11777;SDS011;5946;51.770;8.548;2023-02-01T00:25:47;23.17;;;4.90;;
11777;SDS011;5946;51.770;8.548;2023-02-01T00:28:13;26.33;;;5.10;;
11777;SDS011;5946;51.770;8.548;2023-02-01T00:30:39;21.73;;;5.13;;
11777;SDS011;5946;51.770;8.548;2023-02-01T00:33:05;15.23;;;4.90;;
11777;SDS011;5946;51.770;8.548;2023-02-01T00:35:31;19.70;;;5.47;;
11777;SDS011;5946;51.770;8.548;2023-02-01T00:37:56;18.23;;;5.20;;
11777;SDS011;5946;51.770;8.548;2023-02-01T00:40:24;16.43;;;5.47;;
11777;SDS011;5946;51.770;8.548;2023-02-01T00:42:49;23.23;;;5.97;;
11777;SDS011;5946;51.770;8.548;2023-02-01T00:45:16;16.20;;;5.53;;
11777;SDS011;5946;51.770;8.548;2023-02-01T00:47:41;23.63;;;5.70;;
11777;SDS011;5946;51.770;8.548;2023-02-01T00:50:08;21.87;;;6.07;;
11777;SDS011;5946;51.770;8.548;2023-02-01T00:52:34;22.37;;;5.77;;
11777;SDS011;5946;51.770;8.548;2023-02-01T00:54:59;25.93;;;6.63;;
11777;SDS011;5946;51.770;8.548;2023-02-01T00:57:25;31.03;;;6.73;;
11777;SDS011;5946;51.770;8.548;2023-02-01T00:59:51;25.50;;;6.57;;
11777;SDS011;5946;51.770;8.548;2023-02-01T01:02:18;28.10;;;6.70;;
11777;SDS011;5946;51.770;8.548;2023-02-01T01:04:44;31.07;;;7.23;;
11777;SDS011;5946;51.770;8.548;2023-02-01T01:07:10;30.57;;;7.83;;
11777;SDS011;5946;51.770;8.548;2023-02-01T01:09:36;24.93;;;7.27;;
11777;SDS011;5946;51.770;8.548;2023-02-01T01:12:02;20.53;;;6.83;;
11777;SDS011;5946;51.770;8.548;2023-02-01T01:14:29;22.33;;;7.00;;
11777;SDS011;5946;51.770;8.548;2023-02-01T01:16:55;29.43;;;7.70;;
11777;SDS011;5946;51.770;8.548;2023-02-01T01:19:21;27.63;;;8.07;;
11777;SDS011;5946;51.770;8.548;2023-02-01T01:21:47;29.33;;;8.80;;
11777;SDS011;5946;51.770;8.548;2023-02-01T01:24:13;23.80;;;8.43;;
11777;SDS011;5946;51.770;8.548;2023-02-01T01:26:39;27.83;;;8.53;;
11777;SDS011;5946;51.770;8.548;2023-02-01T01:29:05;27.07;;;9.27;;
11777;SDS011;5946;51.770;8.548;2023-02-01T01:31:31;23.60;;;9.73;;
11777;SDS011;5946;51.770;8.548;2023-02-01T01:33:57;29.23;;;9.60;;
11777;SDS011;5946;51.770;8.548;2023-02-01T01:36:25;30.77;;;10.80;;
11777;SDS011;5946;51.770;8.548;2023-02-01T01:38:51;30.73;;;11.00;;
11777;SDS011;5946;51.770;8.548;2023-02-01T01:41:18;36.20;;;12.67;;
11777;SDS011;5946;51.770;8.548;2023-02-01T01:43:49;29.73;;;11.90;;
11777;SDS011;5946;51.770;8.548;2023-02-01T01:46:16;38.33;;;13.17;;
11777;SDS011;5946;51.770;8.548;2023-02-01T01:48:42;31.50;;;12.07;;
11777;SDS011;5946;51.770;8.548;2023-02-01T01:51:09;33.23;;;14.20;;
11777;SDS011;5946;51.770;8.548;2023-02-01T01:53:38;36.83;;;12.93;;
11777;SDS011;5946;51.770;8.548;2023-02-01T01:56:06;36.07;;;13.73;;
11777;SDS011;5946;51.770;8.548;2023-02-01T01:58:32;33.93;;;12.70;;
11777;SDS011;5946;51.770;8.548;2023-02-01T02:00:58;28.93;;;12.67;;
11777;SDS011;5946;51.770;8.548;2023-02-01T02:03:38;38.33;;;13.63;;
11777;SDS011;5946;51.770;8.548;2023-02-01T02:06:05;30.53;;;12.40;;
11777;SDS011;5946;51.770;8.548;2023-02-01T02:08:35;38.73;;;13.27;;
11777;SDS011;5946;51.770;8.548;2023-02-01T02:11:01;27.80;;;12.17;;
11777;SDS011;5946;51.770;8.548;2023-02-01T02:13:27;28.70;;;11.40;;
11777;SDS011;5946;51.770;8.548;2023-02-01T02:18:31;33.57;;;12.07;;
11777;SDS011;5946;51.770;8.548;2023-02-01T02:21:51;28.70;;;10.97;;
11777;SDS011;5946;51.770;8.548;2023-02-01T02:28:52;31.53;;;10.60;;
11777;SDS011;5946;51.770;8.548;2023-02-01T02:39:33;21.60;;;8.70;;
11777;SDS011;5946;51.770;8.548;2023-02-01T02:42:13;24.67;;;8.43;;
11777;SDS011;5946;51.770;8.548;2023-02-01T02:45:07;27.17;;;8.17;;
11777;SDS011;5946;51.770;8.548;2023-02-01T02:48:02;27.03;;;8.40;;
11777;SDS011;5946;51.770;8.548;2023-02-01T02:50:33;26.03;;;7.70;;
11777;SDS011;5946;51.770;8.548;2023-02-01T02:54:05;20.97;;;6.73;;
11777;SDS011;5946;51.770;8.548;2023-02-01T02:56:23;19.23;;;5.90;;
11777;SDS011;5946;51.770;8.548;2023-02-01T02:59:11;27.00;;;7.27;;
11777;SDS011;5946;51.770;8.548;2023-02-01T03:01:56;24.00;;;6.07;;
11777;SDS011;5946;51.770;8.548;2023-02-01T03:04:41;21.93;;;5.90;;
11777;SDS011;5946;51.770;8.548;2023-02-01T03:07:11;21.53;;;5.67;;
11777;SDS011;5946;51.770;8.548;2023-02-01T03:09:38;20.93;;;6.03;;
11777;SDS011;5946;51.770;8.548;2023-02-01T03:12:07;22.83;;;5.60;;
11777;SDS011;5946;51.770;8.548;2023-02-01T03:14:58;23.47;;;5.53;;
11777;SDS011;5946;51.770;8.548;2023-02-01T03:17:27;16.00;;;4.57;;
11777;SDS011;5946;51.770;8.548;2023-02-01T03:19:55;17.37;;;4.93;;
11777;SDS011;5946;51.770;8.548;2023-02-01T03:22:23;24.83;;;5.43;;
11777;SDS011;5946;51.770;8.548;2023-02-01T03:24:57;24.07;;;5.03;;
11777;SDS011;5946;51.770;8.548;2023-02-01T03:32:26;20.33;;;5.37;;
11777;SDS011;5946;51.770;8.548;2023-02-01T03:34:52;16.73;;;5.07;;
11777;SDS011;5946;51.770;8.548;2023-02-01T03:37:25;25.83;;;4.63;;
11777;SDS011;5946;51.770;8.548;2023-02-01T03:39:59;21.20;;;4.87;;
11777;SDS011;5946;51.770;8.548;2023-02-01T03:42:37;19.00;;;4.43;;
11777;SDS011;5946;51.770;8.548;2023-02-01T03:45:10;22.40;;;5.33;;
11777;SDS011;5946;51.770;8.548;2023-02-01T03:47:37;17.67;;;4.50;;
11777;SDS011;5946;51.770;8.548;2023-02-01T03:50:09;17.47;;;4.43;;
11777;SDS011;5946;51.770;8.548;2023-02-01T03:52:43;19.37;;;4.30;;
11777;SDS011;5946;51.770;8.548;2023-02-01T03:55:10;16.33;;;4.20;;
11777;SDS011;5946;51.770;8.548;2023-02-01T03:57:39;17.53;;;3.80;;
11777;SDS011;5946;51.770;8.548;2023-02-01T04:00:08;17.07;;;4.13;;
11777;SDS011;5946;51.770;8.548;2023-02-01T04:02:35;21.07;;;3.87;;
11777;SDS011;5946;51.770;8.548;2023-02-01T04:05:01;14.60;;;3.87;;
11777;SDS011;5946;51.770;8.548;2023-02-01T04:07:26;14.93;;;3.53;;
11777;SDS011;5946;51.770;8.548;2023-02-01T04:09:52;18.07;;;3.77;;
11777;SDS011;5946;51.770;8.548;2023-02-01T04:12:18;18.37;;;3.83;;
11777;SDS011;5946;51.770;8.548;2023-02-01T04:14:44;21.10;;;3.90;;
11777;SDS011;5946;51.770;8.548;2023-02-01T04:17:10;16.57;;;3.93;;
11777;SDS011;5946;51.770;8.548;2023-02-01T04:19:36;24.50;;;4.67;;
11777;SDS011;5946;51.770;8.548;2023-02-01T04:22:02;21.07;;;4.20;;
11777;SDS011;5946;51.770;8.548;2023-02-01T04:24:28;18.47;;;4.57;;
11777;SDS011;5946;51.770;8.548;2023-02-01T04:26:54;22.77;;;4.37;;
11777;SDS011;5946;51.770;8.548;2023-02-01T04:29:20;17.80;;;4.30;;
11777;SDS011;5946;51.770;8.548;2023-02-01T04:31:46;23.73;;;5.90;;
11777;SDS011;5946;51.770;8.548;2023-02-01T04:34:12;22.17;;;5.07;;
11777;SDS011;5946;51.770;8.548;2023-02-01T04:36:37;16.93;;;3.60;;
11777;SDS011;5946;51.770;8.548;2023-02-01T04:39:03;25.47;;;4.90;;
11777;SDS011;5946;51.770;8.548;2023-02-01T04:41:29;23.63;;;5.20;;
11777;SDS011;5946;51.770;8.548;2023-02-01T04:43:55;14.47;;;4.00;;
11777;SDS011;5946;51.770;8.548;2023-02-01T04:46:21;14.03;;;3.27;;
11777;SDS011;5946;51.770;8.548;2023-02-01T04:48:47;17.93;;;4.57;;
11777;SDS011;5946;51.770;8.548;2023-02-01T04:51:13;18.63;;;4.10;;
11777;SDS011;5946;51.770;8.548;2023-02-01T04:53:40;21.17;;;4.60;;
11777;SDS011;5946;51.770;8.548;2023-02-01T04:56:06;21.53;;;4.20;;
11777;SDS011;5946;51.770;8.548;2023-02-01T04:58:32;13.83;;;3.47;;
11777;SDS011;5946;51.770;8.548;2023-02-01T05:00:58;24.37;;;3.93;;
11777;SDS011;5946;51.770;8.548;2023-02-01T05:03:24;26.87;;;4.67;;
11777;SDS011;5946;51.770;8.548;2023-02-01T05:05:50;26.73;;;4.93;;
11777;SDS011;5946;51.770;8.548;2023-02-01T05:08:18;16.83;;;4.20;;
11777;SDS011;5946;51.770;8.548;2023-02-01T05:10:44;18.53;;;4.00;;
11777;SDS011;5946;51.770;8.548;2023-02-01T05:13:10;19.17;;;4.63;;
11777;SDS011;5946;51.770;8.548;2023-02-01T05:15:55;18.63;;;3.90;;
11777;SDS011;5946;51.770;8.548;2023-02-01T05:18:21;16.50;;;3.80;;
11777;SDS011;5946;51.770;8.548;2023-02-01T05:20:47;17.63;;;3.67;;
11777;SDS011;5946;51.770;8.548;2023-02-01T05:23:13;18.50;;;4.00;;
11777;SDS011;5946;51.770;8.548;2023-02-01T05:25:39;18.70;;;4.20;;
11777;SDS011;5946;51.770;8.548;2023-02-01T05:28:04;21.50;;;4.37;;
11777;SDS011;5946;51.770;8.548;2023-02-01T05:30:30;20.80;;;4.47;;
11777;SDS011;5946;51.770;8.548;2023-02-01T05:32:57;22.00;;;4.00;;
11777;SDS011;5946;51.770;8.548;2023-02-01T05:35:23;18.07;;;3.97;;
11777;SDS011;5946;51.770;8.548;2023-02-01T05:37:49;20.53;;;4.00;;
11777;SDS011;5946;51.770;8.548;2023-02-01T05:40:15;23.67;;;4.57;;
11777;SDS011;5946;51.770;8.548;2023-02-01T05:42:41;17.40;;;4.13;;
11777;SDS011;5946;51.770;8.548;2023-02-01T05:45:07;17.63;;;4.67;;
11777;SDS011;5946;51.770;8.548;2023-02-01T05:47:33;14.53;;;3.60;;
11777;SDS011;5946;51.770;8.548;2023-02-01T05:49:59;15.20;;;3.63;;
11777;SDS011;5946;51.770;8.548;2023-02-01T05:52:25;16.10;;;3.60;;
11777;SDS011;5946;51.770;8.548;2023-02-01T05:54:51;20.40;;;3.73;;
11777;SDS011;5946;51.770;8.548;2023-02-01T05:57:17;16.20;;;3.87;;
11777;SDS011;5946;51.770;8.548;2023-02-01T05:59:43;16.47;;;4.27;;
11777;SDS011;5946;51.770;8.548;2023-02-01T06:02:11;16.00;;;4.00;;
11777;SDS011;5946;51.770;8.548;2023-02-01T06:04:37;16.30;;;4.40;;
11777;SDS011;5946;51.770;8.548;2023-02-01T06:07:03;24.23;;;3.93;;
11777;SDS011;5946;51.770;8.548;2023-02-01T06:09:30;15.03;;;3.10;;
11777;SDS011;5946;51.770;8.548;2023-02-01T06:11:56;25.30;;;3.83;;
11777;SDS011;5946;51.770;8.548;2023-02-01T06:14:22;19.20;;;4.17;;
11777;SDS011;5946;51.770;8.548;2023-02-01T06:16:49;21.53;;;4.67;;
11777;SDS011;5946;51.770;8.548;2023-02-01T06:19:15;21.67;;;3.70;;
11777;SDS011;5946;51.770;8.548;2023-02-01T06:21:41;13.70;;;3.53;;
11777;SDS011;5946;51.770;8.548;2023-02-01T06:24:07;18.87;;;4.13;;
11777;SDS011;5946;51.770;8.548;2023-02-01T06:26:33;13.50;;;3.57;;
11777;SDS011;5946;51.770;8.548;2023-02-01T06:28:59;16.20;;;4.23;;
11777;SDS011;5946;51.770;8.548;2023-02-01T06:31:25;18.47;;;3.87;;
11777;SDS011;5946;51.770;8.548;2023-02-01T06:33:51;20.77;;;4.70;;
11777;SDS011;5946;51.770;8.548;2023-02-01T06:36:18;17.13;;;4.17;;
11777;SDS011;5946;51.770;8.548;2023-02-01T06:38:46;17.80;;;3.73;;
11777;SDS011;5946;51.770;8.548;2023-02-01T06:41:12;23.77;;;4.83;;
11777;SDS011;5946;51.770;8.548;2023-02-01T06:43:38;23.33;;;4.53;;
11777;SDS011;5946;51.770;8.548;2023-02-01T06:46:05;18.20;;;4.30;;
11777;SDS011;5946;51.770;8.548;2023-02-01T06:48:32;18.00;;;4.37;;
11777;SDS011;5946;51.770;8.548;2023-02-01T06:50:58;20.17;;;3.63;;
11777;SDS011;5946;51.770;8.548;2023-02-01T06:53:24;16.50;;;4.20;;
11777;SDS011;5946;51.770;8.548;2023-02-01T06:56:00;26.57;;;4.37;;
11777;SDS011;5946;51.770;8.548;2023-02-01T06:58:30;13.57;;;3.27;;
11777;SDS011;5946;51.770;8.548;2023-02-01T07:00:56;14.50;;;3.93;;
11777;SDS011;5946;51.770;8.548;2023-02-01T07:03:22;20.87;;;3.73;;
11777;SDS011;5946;51.770;8.548;2023-02-01T07:05:48;16.50;;;4.20;;
11777;SDS011;5946;51.770;8.548;2023-02-01T07:08:14;15.60;;;3.97;;
11777;SDS011;5946;51.770;8.548;2023-02-01T07:10:40;15.97;;;4.17;;
11777;SDS011;5946;51.770;8.548;2023-02-01T07:13:06;25.53;;;4.17;;
11777;SDS011;5946;51.770;8.548;2023-02-01T07:15:32;15.17;;;3.93;;
11777;SDS011;5946;51.770;8.548;2023-02-01T07:17:58;18.17;;;4.23;;
11777;SDS011;5946;51.770;8.548;2023-02-01T07:20:24;22.03;;;4.30;;
11777;SDS011;5946;51.770;8.548;2023-02-01T07:22:54;18.93;;;4.33;;
11777;SDS011;5946;51.770;8.548;2023-02-01T07:25:20;20.90;;;4.53;;
11777;SDS011;5946;51.770;8.548;2023-02-01T07:27:46;22.67;;;4.03;;
11777;SDS011;5946;51.770;8.548;2023-02-01T07:30:12;10.43;;;3.10;;
11777;SDS011;5946;51.770;8.548;2023-02-01T07:32:38;15.50;;;3.83;;
11777;SDS011;5946;51.770;8.548;2023-02-01T07:35:04;21.17;;;3.73;;
11777;SDS011;5946;51.770;8.548;2023-02-01T07:37:30;19.87;;;4.10;;
11777;SDS011;5946;51.770;8.548;2023-02-01T07:39:56;15.83;;;3.73;;
11777;SDS011;5946;51.770;8.548;2023-02-01T07:42:22;23.10;;;4.70;;
11777;SDS011;5946;51.770;8.548;2023-02-01T07:44:48;19.97;;;4.27;;
11777;SDS011;5946;51.770;8.548;2023-02-01T07:47:14;18.80;;;3.87;;
11777;SDS011;5946;51.770;8.548;2023-02-01T07:49:40;15.93;;;3.90;;
11777;SDS011;5946;51.770;8.548;2023-02-01T07:52:06;15.30;;;3.73;;
11777;SDS011;5946;51.770;8.548;2023-02-01T07:54:31;14.60;;;3.50;;
11777;SDS011;5946;51.770;8.548;2023-02-01T07:56:57;18.10;;;4.10;;
11777;SDS011;5946;51.770;8.548;2023-02-01T07:59:23;14.80;;;3.97;;
11777;SDS011;5946;51.770;8.548;2023-02-01T08:01:49;20.50;;;4.30;;
11777;SDS011;5946;51.770;8.548;2023-02-01T08:04:15;14.80;;;4.47;;
11777;SDS011;5946;51.770;8.548;2023-02-01T08:06:41;20.83;;;4.83;;
11777;SDS011;5946;51.770;8.548;2023-02-01T08:09:07;18.07;;;3.97;;
11777;SDS011;5946;51.770;8.548;2023-02-01T08:11:35;22.27;;;4.10;;
11777;SDS011;5946;51.770;8.548;2023-02-01T08:14:02;24.70;;;4.17;;
11777;SDS011;5946;51.770;8.548;2023-02-01T08:16:28;23.03;;;4.33;;
11777;SDS011;5946;51.770;8.548;2023-02-01T08:18:54;19.67;;;4.03;;
11777;SDS011;5946;51.770;8.548;2023-02-01T08:21:21;14.73;;;4.20;;
11777;SDS011;5946;51.770;8.548;2023-02-01T08:23:48;17.43;;;4.60;;
11777;SDS011;5946;51.770;8.548;2023-02-01T08:28:41;20.10;;;4.57;;
11777;SDS011;5946;51.770;8.548;2023-02-01T08:31:08;18.17;;;4.03;;
11777;SDS011;5946;51.770;8.548;2023-02-01T08:33:34;18.50;;;5.07;;
11777;SDS011;5946;51.770;8.548;2023-02-01T08:36:02;24.90;;;5.13;;
11777;SDS011;5946;51.770;8.548;2023-02-01T08:38:28;16.53;;;4.50;;
11777;SDS011;5946;51.770;8.548;2023-02-01T08:40:54;20.77;;;4.73;;
11777;SDS011;5946;51.770;8.548;2023-02-01T08:43:20;23.10;;;5.07;;
11777;SDS011;5946;51.770;8.548;2023-02-01T08:45:46;26.03;;;5.20;;
11777;SDS011;5946;51.770;8.548;2023-02-01T08:48:12;24.73;;;5.07;;
11777;SDS011;5946;51.770;8.548;2023-02-01T08:50:38;17.57;;;4.70;;
11777;SDS011;5946;51.770;8.548;2023-02-01T08:53:04;22.77;;;4.37;;
11777;SDS011;5946;51.770;8.548;2023-02-01T08:55:30;18.03;;;4.70;;
11777;SDS011;5946;51.770;8.548;2023-02-01T08:57:56;20.10;;;4.50;;
11777;SDS011;5946;51.770;8.548;2023-02-01T09:00:22;23.30;;;4.93;;
11777;SDS011;5946;51.770;8.548;2023-02-01T09:02:48;28.60;;;5.00;;
11777;SDS011;5946;51.770;8.548;2023-02-01T09:05:14;14.20;;;4.00;;
11777;SDS011;5946;51.770;8.548;2023-02-01T09:07:43;18.00;;;4.40;;
11777;SDS011;5946;51.770;8.548;2023-02-01T09:10:09;21.23;;;4.90;;
11777;SDS011;5946;51.770;8.548;2023-02-01T09:12:35;17.53;;;4.70;;
11777;SDS011;5946;51.770;8.548;2023-02-01T09:15:01;21.63;;;4.33;;
11777;SDS011;5946;51.770;8.548;2023-02-01T09:17:27;23.93;;;4.53;;
11777;SDS011;5946;51.770;8.548;2023-02-01T09:19:54;21.67;;;5.40;;
11777;SDS011;5946;51.770;8.548;2023-02-01T09:22:20;17.87;;;4.00;;
11777;SDS011;5946;51.770;8.548;2023-02-01T09:24:46;19.00;;;4.67;;
11777;SDS011;5946;51.770;8.548;2023-02-01T09:27:12;21.23;;;5.07;;
11777;SDS011;5946;51.770;8.548;2023-02-01T09:29:38;20.33;;;4.70;;
11777;SDS011;5946;51.770;8.548;2023-02-01T09:32:04;16.47;;;4.20;;
11777;SDS011;5946;51.770;8.548;2023-02-01T09:34:31;19.73;;;5.10;;
11777;SDS011;5946;51.770;8.548;2023-02-01T09:36:57;24.50;;;5.30;;
11777;SDS011;5946;51.770;8.548;2023-02-01T09:39:23;20.73;;;4.87;;
11777;SDS011;5946;51.770;8.548;2023-02-01T09:47:19;20.97;;;5.50;;
11777;SDS011;5946;51.770;8.548;2023-02-01T09:49:58;23.83;;;5.40;;
11777;SDS011;5946;51.770;8.548;2023-02-01T09:52:44;17.90;;;4.90;;
11777;SDS011;5946;51.770;8.548;2023-02-01T09:55:13;22.03;;;5.60;;
11777;SDS011;5946;51.770;8.548;2023-02-01T09:57:49;15.43;;;4.70;;
11777;SDS011;5946;51.770;8.548;2023-02-01T10:00:19;19.50;;;5.13;;
11777;SDS011;5946;51.770;8.548;2023-02-01T10:02:46;27.17;;;5.87;;
11777;SDS011;5946;51.770;8.548;2023-02-01T10:05:13;17.77;;;5.40;;
11777;SDS011;5946;51.770;8.548;2023-02-01T10:15:15;19.97;;;5.53;;
11777;SDS011;5946;51.770;8.548;2023-02-01T10:26:12;21.17;;;6.30;;
11777;SDS011;5946;51.770;8.548;2023-02-01T10:28:12;16.73;;;5.30;;
11777;SDS011;5946;51.770;8.548;2023-02-01T10:30:41;21.97;;;5.90;;
11777;SDS011;5946;51.770;8.548;2023-02-01T10:35:46;20.23;;;5.77;;
11777;SDS011;5946;51.770;8.548;2023-02-01T10:38:17;19.93;;;5.80;;
11777;SDS011;5946;51.770;8.548;2023-02-01T10:40:45;21.00;;;5.63;;
11777;SDS011;5946;51.770;8.548;2023-02-01T10:43:11;22.83;;;5.97;;
11777;SDS011;5946;51.770;8.548;2023-02-01T10:45:37;19.37;;;5.70;;
11777;SDS011;5946;51.770;8.548;2023-02-01T10:48:04;24.40;;;6.80;;
11777;SDS011;5946;51.770;8.548;2023-02-01T10:50:34;23.00;;;5.60;;
11777;SDS011;5946;51.770;8.548;2023-02-01T10:56:04;19.80;;;5.20;;
11777;SDS011;5946;51.770;8.548;2023-02-01T10:58:31;19.50;;;5.87;;
11777;SDS011;5946;51.770;8.548;2023-02-01T11:03:31;25.20;;;6.10;;
11777;SDS011;5946;51.770;8.548;2023-02-01T11:05:58;19.57;;;6.37;;
11777;SDS011;5946;51.770;8.548;2023-02-01T11:08:24;20.63;;;5.70;;
11777;SDS011;5946;51.770;8.548;2023-02-01T11:10:57;15.53;;;6.10;;
11777;SDS011;5946;51.770;8.548;2023-02-01T11:13:24;18.60;;;6.03;;
11777;SDS011;5946;51.770;8.548;2023-02-01T11:15:54;26.33;;;6.93;;
11777;SDS011;5946;51.770;8.548;2023-02-01T11:18:25;21.67;;;7.10;;
11777;SDS011;5946;51.770;8.548;2023-02-01T11:20:51;21.43;;;6.20;;
11777;SDS011;5946;51.770;8.548;2023-02-01T11:23:20;17.93;;;6.60;;
11777;SDS011;5946;51.770;8.548;2023-02-01T11:25:48;22.70;;;7.40;;
11777;SDS011;5946;51.770;8.548;2023-02-01T11:28:15;26.10;;;7.67;;
11777;SDS011;5946;51.770;8.548;2023-02-01T11:30:42;28.13;;;7.87;;
11777;SDS011;5946;51.770;8.548;2023-02-01T11:33:12;24.53;;;8.27;;
11777;SDS011;5946;51.770;8.548;2023-02-01T11:35:39;19.83;;;7.63;;
11777;SDS011;5946;51.770;8.548;2023-02-01T11:38:22;21.77;;;7.73;;
11777;SDS011;5946;51.770;8.548;2023-02-01T11:40:50;23.80;;;8.40;;
11777;SDS011;5946;51.770;8.548;2023-02-01T11:43:19;19.90;;;7.67;;
11777;SDS011;5946;51.770;8.548;2023-02-01T11:45:59;22.40;;;8.27;;
11777;SDS011;5946;51.770;8.548;2023-02-01T11:48:26;17.63;;;7.33;;
11777;SDS011;5946;51.770;8.548;2023-02-01T11:53:25;27.50;;;7.47;;
11777;SDS011;5946;51.770;8.548;2023-02-01T11:56:04;20.90;;;8.37;;
11777;SDS011;5946;51.770;8.548;2023-02-01T12:01:21;25.60;;;8.53;;
11777;SDS011;5946;51.770;8.548;2023-02-01T12:12:01;18.37;;;8.10;;
11777;SDS011;5946;51.770;8.548;2023-02-01T12:22:48;28.63;;;11.03;;
11777;SDS011;5946;51.770;8.548;2023-02-01T12:25:19;31.60;;;9.13;;
11777;SDS011;5946;51.770;8.548;2023-02-01T12:27:53;19.43;;;9.80;;
11777;SDS011;5946;51.770;8.548;2023-02-01T12:33:31;24.57;;;9.57;;
11777;SDS011;5946;51.770;8.548;2023-02-01T12:41:14;29.07;;;11.30;;
11777;SDS011;5946;51.770;8.548;2023-02-01T12:43:52;28.33;;;12.43;;
11777;SDS011;5946;51.770;8.548;2023-02-01T12:46:31;28.60;;;12.27;;
11777;SDS011;5946;51.770;8.548;2023-02-01T12:49:11;30.17;;;10.90;;
11777;SDS011;5946;51.770;8.548;2023-02-01T12:51:40;31.00;;;11.90;;
11777;SDS011;5946;51.770;8.548;2023-02-01T12:59:17;29.50;;;13.93;;
11777;SDS011;5946;51.770;8.548;2023-02-01T13:01:46;32.20;;;14.33;;
11777;SDS011;5946;51.770;8.548;2023-02-01T13:04:26;30.17;;;13.60;;
11777;SDS011;5946;51.770;8.548;2023-02-01T13:06:56;30.00;;;13.50;;
11777;SDS011;5946;51.770;8.548;2023-02-01T13:09:26;33.60;;;15.33;;
11777;SDS011;5946;51.770;8.548;2023-02-01T13:11:53;25.73;;;14.80;;
11777;SDS011;5946;51.770;8.548;2023-02-01T13:17:25;27.17;;;16.23;;
11777;SDS011;5946;51.770;8.548;2023-02-01T13:19:55;28.40;;;14.93;;
11777;SDS011;5946;51.770;8.548;2023-02-01T13:25:31;34.17;;;15.87;;
11777;SDS011;5946;51.770;8.548;2023-02-01T13:27:38;32.47;;;15.07;;
11777;SDS011;5946;51.770;8.548;2023-02-01T13:35:43;34.67;;;15.53;;
11777;SDS011;5946;51.770;8.548;2023-02-01T13:38:14;29.67;;;13.47;;
11777;SDS011;5946;51.770;8.548;2023-02-01T13:41:02;24.60;;;12.43;;
11777;SDS011;5946;51.770;8.548;2023-02-01T13:43:30;23.33;;;11.70;;
11777;SDS011;5946;51.770;8.548;2023-02-01T13:46:01;26.97;;;11.87;;
11777;SDS011;5946;51.770;8.548;2023-02-01T13:48:29;24.97;;;10.83;;
11777;SDS011;5946;51.770;8.548;2023-02-01T13:50:58;20.37;;;10.63;;
11777;SDS011;5946;51.770;8.548;2023-02-01T13:53:31;26.30;;;10.70;;
11777;SDS011;5946;51.770;8.548;2023-02-01T13:56:01;21.53;;;9.43;;
11777;SDS011;5946;51.770;8.548;2023-02-01T13:58:35;25.03;;;9.53;;
11777;SDS011;5946;51.770;8.548;2023-02-01T14:03:46;23.80;;;7.83;;
11777;SDS011;5946;51.770;8.548;2023-02-01T14:06:18;22.07;;;7.97;;
11777;SDS011;5946;51.770;8.548;2023-02-01T14:11:37;20.70;;;7.30;;
11777;SDS011;5946;51.770;8.548;2023-02-01T14:14:37;21.87;;;7.37;;
11777;SDS011;5946;51.770;8.548;2023-02-01T14:19:20;21.03;;;6.53;;
11777;SDS011;5946;51.770;8.548;2023-02-01T14:21:48;19.77;;;6.27;;
11777;SDS011;5946;51.770;8.548;2023-02-01T14:24:20;21.20;;;6.40;;
11777;SDS011;5946;51.770;8.548;2023-02-01T14:26:48;23.50;;;6.00;;
11777;SDS011;5946;51.770;8.548;2023-02-01T14:36:58;15.87;;;4.83;;
11777;SDS011;5946;51.770;8.548;2023-02-01T14:39:36;16.07;;;4.30;;
11777;SDS011;5946;51.770;8.548;2023-02-01T14:42:14;16.87;;;4.27;;
11777;SDS011;5946;51.770;8.548;2023-02-01T14:44:42;16.37;;;4.50;;
11777;SDS011;5946;51.770;8.548;2023-02-01T14:47:09;16.97;;;4.10;;
11777;SDS011;5946;51.770;8.548;2023-02-01T14:49:37;15.73;;;4.10;;
11777;SDS011;5946;51.770;8.548;2023-02-01T14:52:06;19.70;;;4.70;;
11777;SDS011;5946;51.770;8.548;2023-02-01T14:54:35;19.27;;;4.30;;
11777;SDS011;5946;51.770;8.548;2023-02-01T14:57:02;23.43;;;4.67;;
11777;SDS011;5946;51.770;8.548;2023-02-01T14:59:29;18.33;;;4.20;;
11777;SDS011;5946;51.770;8.548;2023-02-01T15:01:58;14.53;;;4.17;;
11777;SDS011;5946;51.770;8.548;2023-02-01T15:04:26;13.27;;;4.00;;
11777;SDS011;5946;51.770;8.548;2023-02-01T15:09:34;18.77;;;4.43;;
11777;SDS011;5946;51.770;8.548;2023-02-01T15:14:27;20.23;;;4.43;;
11777;SDS011;5946;51.770;8.548;2023-02-01T15:16:53;17.03;;;5.77;;
11777;SDS011;5946;51.770;8.548;2023-02-01T15:19:20;16.87;;;4.03;;
11777;SDS011;5946;51.770;8.548;2023-02-01T15:21:48;7.63;;;2.03;;
11777;SDS011;5946;51.770;8.548;2023-02-01T15:24:21;6.77;;;1.43;;
11777;SDS011;5946;51.770;8.548;2023-02-01T15:26:47;14.90;;;7.10;;
11777;SDS011;5946;51.770;8.548;2023-02-01T15:29:14;17.17;;;8.73;;
11777;SDS011;5946;51.770;8.548;2023-02-01T15:31:47;9.93;;;2.53;;
11777;SDS011;5946;51.770;8.548;2023-02-01T15:34:13;9.70;;;3.30;;
11777;SDS011;5946;51.770;8.548;2023-02-01T15:36:40;15.23;;;4.33;;
11777;SDS011;5946;51.770;8.548;2023-02-01T15:41:43;21.80;;;5.30;;
11777;SDS011;5946;51.770;8.548;2023-02-01T15:44:30;25.00;;;5.80;;
11777;SDS011;5946;51.770;8.548;2023-02-01T15:46:57;19.77;;;4.90;;
11777;SDS011;5946;51.770;8.548;2023-02-01T15:49:30;23.13;;;5.17;;
11777;SDS011;5946;51.770;8.548;2023-02-01T15:51:58;21.03;;;5.03;;
11777;SDS011;5946;51.770;8.548;2023-02-01T15:54:29;15.63;;;4.37;;
11777;SDS011;5946;51.770;8.548;2023-02-01T15:56:57;23.07;;;7.13;;
11777;SDS011;5946;51.770;8.548;2023-02-01T15:59:25;22.27;;;6.03;;
11777;SDS011;5946;51.770;8.548;2023-02-01T16:01:54;20.30;;;6.27;;
11777;SDS011;5946;51.770;8.548;2023-02-01T16:04:21;23.43;;;6.40;;
11777;SDS011;5946;51.770;8.548;2023-02-01T16:06:58;27.17;;;6.47;;
11777;SDS011;5946;51.770;8.548;2023-02-01T16:09:39;18.20;;;5.10;;
11777;SDS011;5946;51.770;8.548;2023-02-01T16:12:20;18.97;;;4.50;;
11777;SDS011;5946;51.770;8.548;2023-02-01T16:14:48;17.63;;;4.30;;
11777;SDS011;5946;51.770;8.548;2023-02-01T16:17:13;17.37;;;4.80;;
11777;SDS011;5946;51.770;8.548;2023-02-01T16:19:39;16.33;;;5.00;;
11777;SDS011;5946;51.770;8.548;2023-02-01T16:22:05;22.33;;;6.03;;
11777;SDS011;5946;51.770;8.548;2023-02-01T16:24:31;14.87;;;5.87;;
11777;SDS011;5946;51.770;8.548;2023-02-01T16:26:58;13.97;;;4.93;;
11777;SDS011;5946;51.770;8.548;2023-02-01T16:29:24;10.33;;;4.50;;
11777;SDS011;5946;51.770;8.548;2023-02-01T16:31:50;10.70;;;3.23;;
11777;SDS011;5946;51.770;8.548;2023-02-01T16:34:16;12.00;;;3.60;;
11777;SDS011;5946;51.770;8.548;2023-02-01T16:36:43;11.47;;;4.17;;
11777;SDS011;5946;51.770;8.548;2023-02-01T16:39:11;12.63;;;4.50;;
11777;SDS011;5946;51.770;8.548;2023-02-01T16:41:37;9.33;;;3.93;;
11777;SDS011;5946;51.770;8.548;2023-02-01T16:44:04;13.17;;;4.70;;
11777;SDS011;5946;51.770;8.548;2023-02-01T16:46:32;11.20;;;4.10;;
11777;SDS011;5946;51.770;8.548;2023-02-01T16:49:00;15.93;;;5.20;;
11777;SDS011;5946;51.770;8.548;2023-02-01T16:51:28;16.83;;;4.70;;
11777;SDS011;5946;51.770;8.548;2023-02-01T16:53:54;14.27;;;4.30;;
11777;SDS011;5946;51.770;8.548;2023-02-01T16:58:46;12.07;;;3.10;;
11777;SDS011;5946;51.770;8.548;2023-02-01T17:01:18;8.50;;;2.50;;